sensor_id;sensor_type;location;lat;lon;timestamp;pressure;altitude;pressure_sealevel;temperature;humidity
76694;BME280;65625;52.136;5.424;2023-02-28T00:00:29;103301.28;;;1.00;86.37
76694;BME280;65625;52.136;5.424;2023-02-28T00:02:56;103302.16;;;1.03;87.26
76694;BME280;65625;52.136;5.424;2023-02-28T00:05:24;103295.09;;;1.10;86.82
76694;BME280;65625;52.136;5.424;2023-02-28T00:07:52;103302.19;;;1.12;86.90
76694;BME280;65625;52.136;5.424;2023-02-28T00:10:21;103302.19;;;1.15;86.44
76694;BME280;65625;52.136;5.424;2023-02-28T00:12:50;103307.53;;;1.21;87.03
76694;BME280;65625;52.136;5.424;2023-02-28T00:15:17;103312.84;;;1.26;86.55
76694;BME280;65625;52.136;5.424;2023-02-28T00:17:44;103299.56;;;1.30;86.82
76694;BME280;65625;52.136;5.424;2023-02-28T00:20:12;103309.34;;;1.35;86.39
76694;BME280;65625;52.136;5.424;2023-02-28T00:22:44;103313.78;;;1.40;86.31
76694;BME280;65625;52.136;5.424;2023-02-28T00:25:13;103312.00;;;1.42;87.09
76694;BME280;65625;52.136;5.424;2023-02-28T00:27:41;103304.03;;;1.47;86.58
76694;BME280;65625;52.136;5.424;2023-02-28T00:30:11;103312.03;;;1.53;85.80
76694;BME280;65625;52.136;5.424;2023-02-28T00:32:38;103309.34;;;1.56;86.42
76694;BME280;65625;52.136;5.424;2023-02-28T00:35:06;103310.25;;;1.59;86.11
76694;BME280;65625;52.136;5.424;2023-02-28T00:37:33;103303.16;;;1.61;85.92
76694;BME280;65625;52.136;5.424;2023-02-28T00:40:00;103302.25;;;1.64;86.41
76694;BME280;65625;52.136;5.424;2023-02-28T00:42:26;103307.63;;;1.67;86.52
76694;BME280;65625;52.136;5.424;2023-02-28T00:44:53;103301.38;;;1.68;85.92
76694;BME280;65625;52.136;5.424;2023-02-28T00:47:20;103299.63;;;1.71;85.56
76694;BME280;65625;52.136;5.424;2023-02-28T00:49:47;103300.50;;;1.75;85.82
76694;BME280;65625;52.136;5.424;2023-02-28T00:52:13;103302.28;;;1.76;85.93
76694;BME280;65625;52.136;5.424;2023-02-28T00:54:40;103300.50;;;1.76;86.27
76694;BME280;65625;52.136;5.424;2023-02-28T00:57:06;103300.50;;;1.75;85.45
76694;BME280;65625;52.136;5.424;2023-02-28T00:59:33;103303.16;;;1.79;85.67
76694;BME280;65625;52.136;5.424;2023-02-28T01:01:59;103303.16;;;1.84;85.13
76694;BME280;65625;52.136;5.424;2023-02-28T01:04:26;103308.47;;;1.84;85.91
76694;BME280;65625;52.136;5.424;2023-02-28T01:06:53;103306.72;;;1.84;85.57
76694;BME280;65625;52.136;5.424;2023-02-28T01:09:19;103305.84;;;1.87;86.12
76694;BME280;65625;52.136;5.424;2023-02-28T01:11:46;103307.59;;;1.88;85.60
76694;BME280;65625;52.136;5.424;2023-02-28T01:14:13;103311.16;;;1.91;85.52
76694;BME280;65625;52.136;5.424;2023-02-28T01:16:40;103298.75;;;1.92;85.52
76694;BME280;65625;52.136;5.424;2023-02-28T01:19:07;103300.50;;;1.93;85.59
76694;BME280;65625;52.136;5.424;2023-02-28T01:21:34;103301.41;;;1.95;85.34
76694;BME280;65625;52.136;5.424;2023-02-28T01:24:03;103297.84;;;1.96;85.22
76694;BME280;65625;52.136;5.424;2023-02-28T01:26:30;103303.16;;;1.96;85.53
76694;BME280;65625;52.136;5.424;2023-02-28T01:28:56;103295.16;;;1.97;84.97
76694;BME280;65625;52.136;5.424;2023-02-28T01:31:24;103287.16;;;1.99;85.23
76694;BME280;65625;52.136;5.424;2023-02-28T01:33:51;103292.53;;;2.03;85.34
76694;BME280;65625;52.136;5.424;2023-02-28T01:36:21;103290.72;;;2.02;85.44
76694;BME280;65625;52.136;5.424;2023-02-28T01:38:48;103286.28;;;2.03;85.66
76694;BME280;65625;52.136;5.424;2023-02-28T01:41:25;103288.06;;;2.04;85.46
76694;BME280;65625;52.136;5.424;2023-02-28T01:44:02;103294.28;;;2.07;85.73
76694;BME280;65625;52.136;5.424;2023-02-28T01:46:35;103294.25;;;2.09;85.39
76694;BME280;65625;52.136;5.424;2023-02-28T01:49:14;103291.59;;;2.09;85.81
76694;BME280;65625;52.136;5.424;2023-02-28T01:51:49;103284.50;;;2.09;84.95
76694;BME280;65625;52.136;5.424;2023-02-28T01:54:31;103277.41;;;2.11;85.06
76694;BME280;65625;52.136;5.424;2023-02-28T01:57:07;103281.84;;;2.11;85.20
76694;BME280;65625;52.136;5.424;2023-02-28T01:59:47;103280.94;;;2.10;85.11
76694;BME280;65625;52.136;5.424;2023-02-28T02:02:17;103279.16;;;2.12;85.44
76694;BME280;65625;52.136;5.424;2023-02-28T02:04:59;103273.84;;;2.12;85.57
76694;BME280;65625;52.136;5.424;2023-02-28T02:07:31;103271.19;;;2.12;85.68
76694;BME280;65625;52.136;5.424;2023-02-28T02:15:40;103259.66;;;2.12;85.05
76694;BME280;65625;52.136;5.424;2023-02-28T02:18:23;103256.09;;;2.10;85.78
76694;BME280;65625;52.136;5.424;2023-02-28T02:23:59;103266.75;;;2.13;85.87
76694;BME280;65625;52.136;5.424;2023-02-28T02:35:00;103272.94;;;2.18;85.51
76694;BME280;65625;52.136;5.424;2023-02-28T02:37:57;103272.06;;;2.19;85.61
76694;BME280;65625;52.136;5.424;2023-02-28T02:40:30;103269.38;;;2.19;85.58
76694;BME280;65625;52.136;5.424;2023-02-28T02:43:06;103269.38;;;2.20;85.14
76694;BME280;65625;52.136;5.424;2023-02-28T02:48:45;103269.41;;;2.23;85.18
76694;BME280;65625;52.136;5.424;2023-02-28T02:51:17;103272.91;;;2.25;85.58
76694;BME280;65625;52.136;5.424;2023-02-28T02:53:56;103272.94;;;2.27;85.23
76694;BME280;65625;52.136;5.424;2023-02-28T02:56:29;103263.16;;;2.27;85.49
76694;BME280;65625;52.136;5.424;2023-02-28T02:59:02;103263.16;;;2.29;85.44
76694;BME280;65625;52.136;5.424;2023-02-28T03:01:30;103268.47;;;2.29;85.68
76694;BME280;65625;52.136;5.424;2023-02-28T03:04:01;103260.47;;;2.29;85.48
76694;BME280;65625;52.136;5.424;2023-02-28T03:06:29;103271.13;;;2.29;86.18
76694;BME280;65625;52.136;5.424;2023-02-28T03:08:55;103265.81;;;2.30;85.89
76694;BME280;65625;52.136;5.424;2023-02-28T03:11:22;103275.59;;;2.31;86.54
76694;BME280;65625;52.136;5.424;2023-02-28T03:13:51;103271.16;;;2.33;86.42
76694;BME280;65625;52.136;5.424;2023-02-28T03:21:44;103274.69;;;2.34;86.55
76694;BME280;65625;52.136;5.424;2023-02-28T03:24:19;103263.16;;;2.35;86.03
76694;BME280;65625;52.136;5.424;2023-02-28T03:26:55;103272.91;;;2.36;86.45
76694;BME280;65625;52.136;5.424;2023-02-28T03:32:09;103272.03;;;2.37;86.36
76694;BME280;65625;52.136;5.424;2023-02-28T03:34:49;103274.69;;;2.38;86.73
76694;BME280;65625;52.136;5.424;2023-02-28T03:37:22;103271.13;;;2.38;86.69
76694;BME280;65625;52.136;5.424;2023-02-28T03:40:02;103268.47;;;2.38;86.14
76694;BME280;65625;52.136;5.424;2023-02-28T03:42:35;103276.44;;;2.41;86.10
76694;BME280;65625;52.136;5.424;2023-02-28T03:45:11;103283.56;;;2.42;86.49
76694;BME280;65625;52.136;5.424;2023-02-28T03:48:00;103282.66;;;2.41;86.26
76694;BME280;65625;52.136;5.424;2023-02-28T03:50:39;103286.22;;;2.42;85.68
76694;BME280;65625;52.136;5.424;2023-02-28T03:53:17;103287.13;;;2.39;86.15
76694;BME280;65625;52.136;5.424;2023-02-28T03:55:49;103295.13;;;2.36;86.06
76694;BME280;65625;52.136;5.424;2023-02-28T03:58:27;103297.78;;;2.36;85.31
76694;BME280;65625;52.136;5.424;2023-02-28T04:01:04;103294.22;;;2.36;84.62
76694;BME280;65625;52.136;5.424;2023-02-28T04:03:37;103296.00;;;2.35;84.85
76694;BME280;65625;52.136;5.424;2023-02-28T04:06:07;103283.59;;;2.33;85.38
76694;BME280;65625;52.136;5.424;2023-02-28T04:08:34;103286.25;;;2.34;84.97
76694;BME280;65625;52.136;5.424;2023-02-28T04:11:11;103298.66;;;2.32;84.76
76694;BME280;65625;52.136;5.424;2023-02-28T04:13:42;103291.56;;;2.33;84.45
76694;BME280;65625;52.136;5.424;2023-02-28T04:16:12;103298.69;;;2.31;83.33
76694;BME280;65625;52.136;5.424;2023-02-28T04:18:46;103296.91;;;2.28;81.27
76694;BME280;65625;52.136;5.424;2023-02-28T04:21:13;103290.72;;;2.25;80.67
76694;BME280;65625;52.136;5.424;2023-02-28T04:23:40;103296.91;;;2.24;79.97
76694;BME280;65625;52.136;5.424;2023-02-28T04:26:06;103294.25;;;2.21;79.65
76694;BME280;65625;52.136;5.424;2023-02-28T04:28:33;103296.03;;;2.14;78.35
76694;BME280;65625;52.136;5.424;2023-02-28T04:31:03;103304.91;;;2.10;77.67
76694;BME280;65625;52.136;5.424;2023-02-28T04:33:31;103306.69;;;2.04;76.50
76694;BME280;65625;52.136;5.424;2023-02-28T04:36:02;103298.72;;;2.01;76.97
76694;BME280;65625;52.136;5.424;2023-02-28T04:38:36;103301.38;;;1.99;76.38
76694;BME280;65625;52.136;5.424;2023-02-28T04:41:04;103304.94;;;1.97;76.44
76694;BME280;65625;52.136;5.424;2023-02-28T04:43:31;103303.16;;;1.96;76.69
76694;BME280;65625;52.136;5.424;2023-02-28T04:46:00;103311.16;;;1.96;76.54
76694;BME280;65625;52.136;5.424;2023-02-28T04:48:29;103314.72;;;1.95;77.57
76694;BME280;65625;52.136;5.424;2023-02-28T04:51:09;103305.81;;;1.96;77.54
76694;BME280;65625;52.136;5.424;2023-02-28T04:53:37;103303.16;;;1.94;77.39
76694;BME280;65625;52.136;5.424;2023-02-28T04:56:05;103307.59;;;1.92;77.76
76694;BME280;65625;52.136;5.424;2023-02-28T04:58:33;103304.94;;;1.92;77.93
76694;BME280;65625;52.136;5.424;2023-02-28T05:01:16;103312.03;;;1.89;77.43
76694;BME280;65625;52.136;5.424;2023-02-28T05:03:43;103305.84;;;1.87;78.43
76694;BME280;65625;52.136;5.424;2023-02-28T05:06:11;103298.75;;;1.80;78.57
76694;BME280;65625;52.136;5.424;2023-02-28T05:08:38;103302.28;;;1.73;79.81
76694;BME280;65625;52.136;5.424;2023-02-28T05:13:41;103300.47;;;1.51;80.14
76694;BME280;65625;52.136;5.424;2023-02-28T05:16:08;103294.25;;;1.43;81.02
76694;BME280;65625;52.136;5.424;2023-02-28T05:18:35;103308.44;;;1.37;81.86
76694;BME280;65625;52.136;5.424;2023-02-28T05:21:01;103306.66;;;1.38;82.21
76694;BME280;65625;52.136;5.424;2023-02-28T05:23:28;103311.09;;;1.33;82.44
76694;BME280;65625;52.136;5.424;2023-02-28T05:25:55;103319.97;;;1.32;83.24
76694;BME280;65625;52.136;5.424;2023-02-28T05:28:22;103319.97;;;1.35;83.27
76694;BME280;65625;52.136;5.424;2023-02-28T05:30:49;103305.78;;;1.33;83.66
76694;BME280;65625;52.136;5.424;2023-02-28T05:33:15;103315.50;;;1.33;83.91
76694;BME280;65625;52.136;5.424;2023-02-28T05:35:42;103309.34;;;1.32;84.05
76694;BME280;65625;52.136;5.424;2023-02-28T05:38:11;103316.41;;;1.31;84.47
76694;BME280;65625;52.136;5.424;2023-02-28T05:40:38;103305.78;;;1.31;84.57
76694;BME280;65625;52.136;5.424;2023-02-28T05:43:09;103305.78;;;1.29;84.51
76694;BME280;65625;52.136;5.424;2023-02-28T05:45:36;103306.66;;;1.32;85.04
76694;BME280;65625;52.136;5.424;2023-02-28T05:48:02;103307.53;;;1.30;85.04
76694;BME280;65625;52.136;5.424;2023-02-28T05:50:29;103316.41;;;1.33;85.70
76694;BME280;65625;52.136;5.424;2023-02-28T05:52:55;103315.50;;;1.33;85.44
76694;BME280;65625;52.136;5.424;2023-02-28T05:55:22;103312.00;;;1.33;86.05
76694;BME280;65625;52.136;5.424;2023-02-28T05:57:49;103318.19;;;1.32;85.61
76694;BME280;65625;52.136;5.424;2023-02-28T06:00:15;103321.72;;;1.29;86.65
76694;BME280;65625;52.136;5.424;2023-02-28T06:02:44;103303.13;;;1.28;86.47
76694;BME280;65625;52.136;5.424;2023-02-28T06:05:15;103313.75;;;1.26;86.77
76694;BME280;65625;52.136;5.424;2023-02-28T06:07:42;103317.28;;;1.24;87.07
76694;BME280;65625;52.136;5.424;2023-02-28T06:10:10;103311.09;;;1.23;87.10
76694;BME280;65625;52.136;5.424;2023-02-28T06:12:37;103316.41;;;1.23;87.13
76694;BME280;65625;52.136;5.424;2023-02-28T06:15:04;103308.44;;;1.23;87.70
76694;BME280;65625;52.136;5.424;2023-02-28T06:17:31;103315.50;;;1.24;87.93
76694;BME280;65625;52.136;5.424;2023-02-28T06:19:57;103308.44;;;1.23;88.26
76694;BME280;65625;52.136;5.424;2023-02-28T06:22:24;103305.75;;;1.22;87.96
76694;BME280;65625;52.136;5.424;2023-02-28T06:24:50;103301.31;;;1.22;88.60
76694;BME280;65625;52.136;5.424;2023-02-28T06:27:18;103298.66;;;1.24;88.91
76694;BME280;65625;52.136;5.424;2023-02-28T06:29:46;103288.91;;;1.26;89.02
76694;BME280;65625;52.136;5.424;2023-02-28T06:32:13;103302.22;;;1.27;88.58
76694;BME280;65625;52.136;5.424;2023-02-28T06:34:40;103311.97;;;1.27;89.08
76694;BME280;65625;52.136;5.424;2023-02-28T06:37:06;103310.19;;;1.27;88.77
76694;BME280;65625;52.136;5.424;2023-02-28T06:39:33;103308.44;;;1.29;89.46
76694;BME280;65625;52.136;5.424;2023-02-28T06:42:00;103299.56;;;1.29;88.75
76694;BME280;65625;52.136;5.424;2023-02-28T06:44:26;103301.34;;;1.32;88.89
76694;BME280;65625;52.136;5.424;2023-02-28T06:46:53;103300.44;;;1.33;89.48
76694;BME280;65625;52.136;5.424;2023-02-28T06:49:19;103303.13;;;1.36;90.01
76694;BME280;65625;52.136;5.424;2023-02-28T06:51:46;103296.03;;;1.38;90.19
76694;BME280;65625;52.136;5.424;2023-02-28T06:54:12;103302.25;;;1.40;89.46
76694;BME280;65625;52.136;5.424;2023-02-28T06:56:39;103309.31;;;1.42;90.12
76694;BME280;65625;52.136;5.424;2023-02-28T06:59:06;103319.09;;;1.43;90.01
76694;BME280;65625;52.136;5.424;2023-02-28T07:01:32;103320.88;;;1.46;89.80
76694;BME280;65625;52.136;5.424;2023-02-28T07:04:00;103314.69;;;1.50;90.03
76694;BME280;65625;52.136;5.424;2023-02-28T07:06:27;103318.25;;;1.50;90.40
76694;BME280;65625;52.136;5.424;2023-02-28T07:08:54;103321.75;;;1.54;89.47
76694;BME280;65625;52.136;5.424;2023-02-28T07:11:22;103325.31;;;1.57;90.00
76694;BME280;65625;52.136;5.424;2023-02-28T07:13:55;103329.78;;;1.61;89.65
76694;BME280;65625;52.136;5.424;2023-02-28T07:16:22;103324.44;;;1.64;89.36
76694;BME280;65625;52.136;5.424;2023-02-28T07:18:52;103320.91;;;1.68;89.63
76694;BME280;65625;52.136;5.424;2023-02-28T07:21:19;103319.16;;;1.73;89.45
76694;BME280;65625;52.136;5.424;2023-02-28T07:23:45;103330.69;;;1.77;89.21
76694;BME280;65625;52.136;5.424;2023-02-28T07:26:15;103328.88;;;1.79;89.55
76694;BME280;65625;52.136;5.424;2023-02-28T07:28:45;103331.56;;;1.83;89.40
76694;BME280;65625;52.136;5.424;2023-02-28T07:31:12;103330.69;;;1.83;89.22
76694;BME280;65625;52.136;5.424;2023-02-28T07:33:40;103328.00;;;1.84;89.78
76694;BME280;65625;52.136;5.424;2023-02-28T07:36:11;103319.13;;;1.93;89.49
76694;BME280;65625;52.136;5.424;2023-02-28T07:38:43;103323.59;;;2.01;89.85
76694;BME280;65625;52.136;5.424;2023-02-28T07:41:18;103330.69;;;2.07;89.23
76694;BME280;65625;52.136;5.424;2023-02-28T07:43:45;103337.78;;;2.08;89.29
76694;BME280;65625;52.136;5.424;2023-02-28T07:46:14;103342.22;;;2.06;88.54
76694;BME280;65625;52.136;5.424;2023-02-28T07:48:42;103340.44;;;2.05;88.80
76694;BME280;65625;52.136;5.424;2023-02-28T07:51:09;103341.31;;;2.05;88.63
76694;BME280;65625;52.136;5.424;2023-02-28T07:53:36;103341.34;;;2.07;88.83
76694;BME280;65625;52.136;5.424;2023-02-28T07:56:03;103343.09;;;2.15;88.30
76694;BME280;65625;52.136;5.424;2023-02-28T07:58:30;103343.97;;;2.29;88.31
76694;BME280;65625;52.136;5.424;2023-02-28T08:00:57;103336.84;;;2.40;88.13
76694;BME280;65625;52.136;5.424;2023-02-28T08:03:30;103338.63;;;2.52;87.21
76694;BME280;65625;52.136;5.424;2023-02-28T08:05:57;103343.94;;;2.53;86.90
76694;BME280;65625;52.136;5.424;2023-02-28T08:08:23;103355.47;;;2.51;86.80
76694;BME280;65625;52.136;5.424;2023-02-28T08:10:50;103360.81;;;2.51;87.17
76694;BME280;65625;52.136;5.424;2023-02-28T08:13:16;103357.28;;;2.52;86.62
76694;BME280;65625;52.136;5.424;2023-02-28T08:15:43;103364.38;;;2.54;87.21
76694;BME280;65625;52.136;5.424;2023-02-28T08:18:11;103362.59;;;2.55;87.07
76694;BME280;65625;52.136;5.424;2023-02-28T08:20:37;103365.28;;;2.53;87.25
76694;BME280;65625;52.136;5.424;2023-02-28T08:23:04;103365.25;;;2.50;86.96
76694;BME280;65625;52.136;5.424;2023-02-28T08:25:30;103363.50;;;2.57;86.94
76694;BME280;65625;52.136;5.424;2023-02-28T08:27:57;103368.78;;;2.68;86.27
76694;BME280;65625;52.136;5.424;2023-02-28T08:30:24;103363.44;;;2.69;85.53
76694;BME280;65625;52.136;5.424;2023-02-28T08:32:50;103361.66;;;2.71;85.93
76694;BME280;65625;52.136;5.424;2023-02-28T08:35:17;103358.09;;;2.71;85.81
76694;BME280;65625;52.136;5.424;2023-02-28T08:37:43;103354.53;;;2.79;85.24
76694;BME280;65625;52.136;5.424;2023-02-28T08:40:10;103351.84;;;2.88;85.09
76694;BME280;65625;52.136;5.424;2023-02-28T08:42:39;103367.81;;;2.94;84.04
76694;BME280;65625;52.136;5.424;2023-02-28T08:45:06;103348.25;;;2.97;84.12
76694;BME280;65625;52.136;5.424;2023-02-28T08:47:32;103349.97;;;3.02;82.89
76694;BME280;65625;52.136;5.424;2023-02-28T08:49:59;103343.78;;;3.02;82.17
76694;BME280;65625;52.136;5.424;2023-02-28T08:52:25;103349.09;;;3.08;81.26
76694;BME280;65625;52.136;5.424;2023-02-28T08:54:52;103346.44;;;3.06;80.31
76694;BME280;65625;52.136;5.424;2023-02-28T08:57:18;103353.53;;;3.12;79.53
76694;BME280;65625;52.136;5.424;2023-02-28T08:59:45;103345.47;;;3.18;78.98
76694;BME280;65625;52.136;5.424;2023-02-28T09:02:13;103343.63;;;3.27;78.61
76694;BME280;65625;52.136;5.424;2023-02-28T09:04:40;103343.56;;;3.41;78.61
76694;BME280;65625;52.136;5.424;2023-02-28T09:07:07;103346.13;;;3.60;77.20
76694;BME280;65625;52.136;5.424;2023-02-28T09:09:34;103348.47;;;4.03;75.35
76694;BME280;65625;52.136;5.424;2023-02-28T09:12:00;103328.50;;;7.22;69.78
76694;BME280;65625;52.136;5.424;2023-02-28T09:14:28;103323.47;;;9.99;60.67
76694;BME280;65625;52.136;5.424;2023-02-28T09:16:54;103328.38;;;11.59;56.48
76694;BME280;65625;52.136;5.424;2023-02-28T09:19:21;103325.50;;;11.64;52.63
76694;BME280;65625;52.136;5.424;2023-02-28T09:21:48;103329.50;;;11.53;50.78
76694;BME280;65625;52.136;5.424;2023-02-28T09:24:15;103313.88;;;11.15;44.86
76694;BME280;65625;52.136;5.424;2023-02-28T09:26:41;103326.22;;;10.50;45.65
76694;BME280;65625;52.136;5.424;2023-02-28T09:29:28;103328.19;;;9.93;47.32
76694;BME280;65625;52.136;5.424;2023-02-28T09:31:54;103328.78;;;10.29;45.50
76694;BME280;65625;52.136;5.424;2023-02-28T09:34:22;103333.84;;;10.39;45.11
76694;BME280;65625;52.136;5.424;2023-02-28T09:36:48;103323.50;;;11.69;42.82
76694;BME280;65625;52.136;5.424;2023-02-28T09:39:17;103312.81;;;15.04;34.40
76694;BME280;65625;52.136;5.424;2023-02-28T09:41:45;103311.06;;;17.72;30.03
76694;BME280;65625;52.136;5.424;2023-02-28T09:44:32;103318.84;;;16.20;30.16
76694;BME280;65625;52.136;5.424;2023-02-28T09:47:07;103324.72;;;12.46;32.29
76694;BME280;65625;52.136;5.424;2023-02-28T09:49:40;103335.44;;;9.91;37.85
76694;BME280;65625;52.136;5.424;2023-02-28T09:52:34;103344.47;;;8.40;39.02
76694;BME280;65625;52.136;5.424;2023-02-28T09:57:41;103346.19;;;7.32;40.80
76694;BME280;65625;52.136;5.424;2023-02-28T10:00:18;103354.94;;;6.99;43.53
76694;BME280;65625;52.136;5.424;2023-02-28T10:05:52;103343.19;;;7.46;45.26
76694;BME280;65625;52.136;5.424;2023-02-28T10:08:28;103346.31;;;7.64;43.23
76694;BME280;65625;52.136;5.424;2023-02-28T10:11:06;103332.22;;;7.92;42.63
76694;BME280;65625;52.136;5.424;2023-02-28T10:13:46;103325.13;;;8.58;42.40
76694;BME280;65625;52.136;5.424;2023-02-28T10:16:22;103320.22;;;9.62;40.09
76694;BME280;65625;52.136;5.424;2023-02-28T10:19:01;103308.94;;;10.56;38.52
76694;BME280;65625;52.136;5.424;2023-02-28T10:21:35;103303.00;;;10.94;38.54
76694;BME280;65625;52.136;5.424;2023-02-28T10:24:14;103316.84;;;10.60;36.69
76694;BME280;65625;52.136;5.424;2023-02-28T10:26:43;103321.09;;;10.18;36.76
76694;BME280;65625;52.136;5.424;2023-02-28T10:29:11;103302.44;;;11.98;35.06
76694;BME280;65625;52.136;5.424;2023-02-28T10:31:38;103295.00;;;15.47;30.08
76694;BME280;65625;52.136;5.424;2023-02-28T10:34:05;103291.88;;;16.61;26.77
76694;BME280;65625;52.136;5.424;2023-02-28T10:36:32;103300.72;;;15.58;26.90
76694;BME280;65625;52.136;5.424;2023-02-28T10:39:01;103303.84;;;14.53;28.92
76694;BME280;65625;52.136;5.424;2023-02-28T10:41:47;103301.56;;;16.05;30.59
76694;BME280;65625;52.136;5.424;2023-02-28T10:44:20;103300.44;;;16.69;26.57
76694;BME280;65625;52.136;5.424;2023-02-28T10:46:48;103294.94;;;16.25;25.11
76694;BME280;65625;52.136;5.424;2023-02-28T10:49:20;103294.53;;;17.32;23.89
76694;BME280;65625;52.136;5.424;2023-02-28T10:51:50;103286.56;;;18.11;22.79
76694;BME280;65625;52.136;5.424;2023-02-28T10:54:22;103277.09;;;18.80;23.94
76694;BME280;65625;52.136;5.424;2023-02-28T10:57:23;103273.13;;;19.22;22.16
76694;BME280;65625;52.136;5.424;2023-02-28T11:00:17;103277.19;;;18.27;23.24
76694;BME280;65625;52.136;5.424;2023-02-28T11:02:45;103276.72;;;18.47;22.54
76694;BME280;65625;52.136;5.424;2023-02-28T11:07:54;103268.84;;;18.55;21.32
76694;BME280;65625;52.136;5.424;2023-02-28T11:10:25;103265.34;;;18.91;21.46
76694;BME280;65625;52.136;5.424;2023-02-28T11:12:57;103261.97;;;19.61;20.47
76694;BME280;65625;52.136;5.424;2023-02-28T11:15:31;103260.22;;;18.86;21.36
76694;BME280;65625;52.136;5.424;2023-02-28T11:18:00;103250.97;;;18.37;21.14
76694;BME280;65625;52.136;5.424;2023-02-28T11:20:30;103262.97;;;18.35;22.31
76694;BME280;65625;52.136;5.424;2023-02-28T11:23:00;103258.75;;;18.43;21.59
76694;BME280;65625;52.136;5.424;2023-02-28T11:25:34;103263.53;;;18.27;21.83
76694;BME280;65625;52.136;5.424;2023-02-28T11:28:03;103244.56;;;18.51;23.03
76694;BME280;65625;52.136;5.424;2023-02-28T11:30:38;103248.81;;;18.80;20.93
76694;BME280;65625;52.136;5.424;2023-02-28T11:33:30;103251.84;;;17.45;23.07
76694;BME280;65625;52.136;5.424;2023-02-28T11:36:01;103259.34;;;15.52;24.92
76694;BME280;65625;52.136;5.424;2023-02-28T11:38:28;103254.44;;;15.58;23.83
76694;BME280;65625;52.136;5.424;2023-02-28T11:51:34;103260.25;;;8.98;35.50
76694;BME280;65625;52.136;5.424;2023-02-28T11:54:05;103259.22;;;9.02;34.77
76694;BME280;65625;52.136;5.424;2023-02-28T11:56:45;103259.88;;;8.80;35.11
76694;BME280;65625;52.136;5.424;2023-02-28T11:59:35;103263.16;;;8.61;34.94
76694;BME280;65625;52.136;5.424;2023-02-28T12:02:17;103253.28;;;8.60;37.76
76694;BME280;65625;52.136;5.424;2023-02-28T12:10:06;103245.16;;;8.61;37.40
76694;BME280;65625;52.136;5.424;2023-02-28T12:18:53;103245.91;;;8.36;37.22
76694;BME280;65625;52.136;5.424;2023-02-28T12:24:14;103246.00;;;8.33;37.28
76694;BME280;65625;52.136;5.424;2023-02-28T12:26:45;103235.97;;;8.39;36.68
76694;BME280;65625;52.136;5.424;2023-02-28T12:29:34;103234.88;;;8.45;36.58
76694;BME280;65625;52.136;5.424;2023-02-28T12:32:21;103227.56;;;8.18;36.69
76694;BME280;65625;52.136;5.424;2023-02-28T12:35:11;103225.63;;;8.24;36.45
76694;BME280;65625;52.136;5.424;2023-02-28T12:37:59;103225.19;;;8.06;37.10
76694;BME280;65625;52.136;5.424;2023-02-28T12:40:55;103238.31;;;8.18;36.88
76694;BME280;65625;52.136;5.424;2023-02-28T12:43:28;103235.59;;;8.19;37.58
76694;BME280;65625;52.136;5.424;2023-02-28T12:46:07;103233.59;;;8.27;36.48
76694;BME280;65625;52.136;5.424;2023-02-28T12:48:43;103233.22;;;8.07;36.35
76694;BME280;65625;52.136;5.424;2023-02-28T12:51:11;103230.13;;;7.89;36.30
76694;BME280;65625;52.136;5.424;2023-02-28T12:56:50;103214.84;;;7.91;37.60
76694;BME280;65625;52.136;5.424;2023-02-28T13:05:24;103209.81;;;7.77;37.46
76694;BME280;65625;52.136;5.424;2023-02-28T13:10:51;103197.13;;;8.16;38.26
76694;BME280;65625;52.136;5.424;2023-02-28T13:13:26;103200.31;;;7.98;35.81
76694;BME280;65625;52.136;5.424;2023-02-28T13:18:33;103203.59;;;7.75;36.97
76694;BME280;65625;52.136;5.424;2023-02-28T13:21:03;103212.19;;;7.89;37.38
76694;BME280;65625;52.136;5.424;2023-02-28T13:26:07;103197.06;;;7.85;37.42
76694;BME280;65625;52.136;5.424;2023-02-28T13:31:15;103191.13;;;8.05;37.06
76694;BME280;65625;52.136;5.424;2023-02-28T13:41:49;103186.84;;;7.65;36.30
76694;BME280;65625;52.136;5.424;2023-02-28T13:44:23;103184.06;;;7.68;37.34
76694;BME280;65625;52.136;5.424;2023-02-28T13:51:51;103179.66;;;7.66;36.80
76694;BME280;65625;52.136;5.424;2023-02-28T14:06:14;103171.59;;;7.66;37.61
76694;BME280;65625;52.136;5.424;2023-02-28T14:11:33;103160.53;;;7.77;37.42
76694;BME280;65625;52.136;5.424;2023-02-28T14:14:00;103160.59;;;7.75;37.48
76694;BME280;65625;52.136;5.424;2023-02-28T14:16:47;103158.06;;;7.69;36.93
76694;BME280;65625;52.136;5.424;2023-02-28T14:19:24;103152.13;;;7.56;37.32
76694;BME280;65625;52.136;5.424;2023-02-28T14:22:50;103165.72;;;7.50;37.58
76694;BME280;65625;52.136;5.424;2023-02-28T14:25:04;103158.78;;;7.42;38.08
76694;BME280;65625;52.136;5.424;2023-02-28T14:27:38;103149.81;;;7.41;37.51
76694;BME280;65625;52.136;5.424;2023-02-28T14:38:45;103146.31;;;7.38;38.32
76694;BME280;65625;52.136;5.424;2023-02-28T14:41:40;103155.09;;;7.46;38.26
76694;BME280;65625;52.136;5.424;2023-02-28T14:46:44;103140.00;;;7.40;38.22
76694;BME280;65625;52.136;5.424;2023-02-28T14:49:50;103141.81;;;7.40;39.04
76694;BME280;65625;52.136;5.424;2023-02-28T14:52:21;103145.44;;;7.39;38.50
76694;BME280;65625;52.136;5.424;2023-02-28T14:54:57;103144.56;;;7.37;38.89
76694;BME280;65625;52.136;5.424;2023-02-28T14:57:29;103141.88;;;7.37;38.69
76694;BME280;65625;52.136;5.424;2023-02-28T15:00:11;103139.13;;;7.40;39.25
76694;BME280;65625;52.136;5.424;2023-02-28T15:02:40;103144.53;;;7.38;38.53
76694;BME280;65625;52.136;5.424;2023-02-28T15:07:44;103142.06;;;7.29;38.55
76694;BME280;65625;52.136;5.424;2023-02-28T15:10:23;103143.19;;;7.21;38.45
76694;BME280;65625;52.136;5.424;2023-02-28T15:13:02;103135.22;;;7.16;38.93
76694;BME280;65625;52.136;5.424;2023-02-28T15:15:54;103142.47;;;7.13;38.55
76694;BME280;65625;52.136;5.424;2023-02-28T15:18:36;103147.03;;;7.11;38.58
76694;BME280;65625;52.136;5.424;2023-02-28T15:21:13;103141.75;;;7.06;38.46
76694;BME280;65625;52.136;5.424;2023-02-28T15:23:46;103148.88;;;7.09;38.97
76694;BME280;65625;52.136;5.424;2023-02-28T15:26:18;103148.06;;;7.05;38.95